sensor_id;sensor_type;location;lat;lon;timestamp;pressure;altitude;pressure_sealevel;temperature;humidity
17054;BME280;8643;48.824;11.422;2024-03-06T00:01:11;96846.06;;;5.87;100.00
17054;BME280;8643;48.824;11.422;2024-03-06T00:03:40;96843.94;;;5.98;100.00
17054;BME280;8643;48.824;11.422;2024-03-06T00:06:08;96844.66;;;6.03;100.00
17054;BME280;8643;48.824;11.422;2024-03-06T00:08:38;96843.16;;;5.97;100.00
17054;BME280;8643;48.824;11.422;2024-03-06T00:11:06;96846.25;;;5.91;100.00
17054;BME280;8643;48.824;11.422;2024-03-06T00:13:35;96856.53;;;5.94;100.00
17054;BME280;8643;48.824;11.422;2024-03-06T00:16:05;96849.47;;;5.93;100.00
17054;BME280;8643;48.824;11.422;2024-03-06T00:18:33;96849.50;;;5.79;100.00
17054;BME280;8643;48.824;11.422;2024-03-06T00:21:02;96851.22;;;5.61;100.00
17054;BME280;8643;48.824;11.422;2024-03-06T00:23:30;96849.69;;;5.68;100.00
17054;BME280;8643;48.824;11.422;2024-03-06T00:26:00;96851.41;;;5.64;100.00
17054;BME280;8643;48.824;11.422;2024-03-06T00:28:29;96854.69;;;5.75;100.00
17054;BME280;8643;48.824;11.422;2024-03-06T00:30:58;96851.28;;;5.69;100.00
17054;BME280;8643;48.824;11.422;2024-03-06T00:33:26;96853.91;;;5.75;100.00
17054;BME280;8643;48.824;11.422;2024-03-06T00:35:55;96857.53;;;5.84;100.00
17054;BME280;8643;48.824;11.422;2024-03-06T00:38:24;96855.13;;;5.82;100.00
17054;BME280;8643;48.824;11.422;2024-03-06T00:40:53;96852.78;;;5.90;100.00
17054;BME280;8643;48.824;11.422;2024-03-06T00:43:23;96861.16;;;5.93;100.00
17054;BME280;8643;48.824;11.422;2024-03-06T00:45:52;96858.44;;;6.07;100.00
17054;BME280;8643;48.824;11.422;2024-03-06T00:48:20;96860.56;;;6.10;100.00
17054;BME280;8643;48.824;11.422;2024-03-06T00:50:49;96860.53;;;6.24;100.00
17054;BME280;8643;48.824;11.422;2024-03-06T00:53:17;96862.69;;;5.99;100.00
17054;BME280;8643;48.824;11.422;2024-03-06T00:55:46;96866.47;;;5.84;100.00
17054;BME280;8643;48.824;11.422;2024-03-06T00:58:14;96866.06;;;5.91;100.00
17054;BME280;8643;48.824;11.422;2024-03-06T01:00:44;96864.91;;;5.83;100.00
17054;BME280;8643;48.824;11.422;2024-03-06T01:03:13;96866.59;;;5.93;100.00
17054;BME280;8643;48.824;11.422;2024-03-06T01:05:42;96862.75;;;5.94;100.00
17054;BME280;8643;48.824;11.422;2024-03-06T01:08:10;96860.25;;;5.98;100.00
17054;BME280;8643;48.824;11.422;2024-03-06T01:10:39;96857.03;;;6.10;100.00
17054;BME280;8643;48.824;11.422;2024-03-06T01:13:08;96852.63;;;6.00;100.00
17054;BME280;8643;48.824;11.422;2024-03-06T01:15:38;96851.88;;;6.22;100.00
17054;BME280;8643;48.824;11.422;2024-03-06T01:18:08;96850.88;;;6.18;100.00
17054;BME280;8643;48.824;11.422;2024-03-06T01:20:37;96848.06;;;6.23;100.00
17054;BME280;8643;48.824;11.422;2024-03-06T01:23:06;96848.66;;;6.06;100.00
17054;BME280;8643;48.824;11.422;2024-03-06T01:25:35;96858.81;;;5.86;100.00
17054;BME280;8643;48.824;11.422;2024-03-06T01:28:04;96854.69;;;5.75;100.00
17054;BME280;8643;48.824;11.422;2024-03-06T01:30:33;96846.56;;;5.61;100.00
17054;BME280;8643;48.824;11.422;2024-03-06T01:33:01;96846.88;;;5.74;100.00
17054;BME280;8643;48.824;11.422;2024-03-06T01:35:31;96847.38;;;5.76;100.00
17054;BME280;8643;48.824;11.422;2024-03-06T01:38:00;96845.06;;;5.69;100.00
17054;BME280;8643;48.824;11.422;2024-03-06T01:40:29;96840.81;;;5.77;100.00
17054;BME280;8643;48.824;11.422;2024-03-06T01:42:57;96844.16;;;5.87;100.00
17054;BME280;8643;48.824;11.422;2024-03-06T01:45:26;96839.75;;;5.64;100.00
17054;BME280;8643;48.824;11.422;2024-03-06T01:47:54;96847.16;;;5.58;100.00
17054;BME280;8643;48.824;11.422;2024-03-06T01:50:23;96847.19;;;5.72;100.00
17054;BME280;8643;48.824;11.422;2024-03-06T01:52:53;96845.47;;;5.76;100.00
17054;BME280;8643;48.824;11.422;2024-03-06T01:55:22;96851.19;;;5.75;100.00
17054;BME280;8643;48.824;11.422;2024-03-06T01:57:50;96848.69;;;5.64;100.00
17054;BME280;8643;48.824;11.422;2024-03-06T02:00:19;96849.69;;;5.68;100.00
17054;BME280;8643;48.824;11.422;2024-03-06T02:02:48;96851.41;;;5.64;100.00
17054;BME280;8643;48.824;11.422;2024-03-06T02:05:17;96851.41;;;5.64;100.00
17054;BME280;8643;48.824;11.422;2024-03-06T02:07:47;96849.47;;;5.65;100.00
17054;BME280;8643;48.824;11.422;2024-03-06T02:10:18;96844.03;;;5.65;100.00
17054;BME280;8643;48.824;11.422;2024-03-06T02:12:46;96839.22;;;5.62;100.00
17054;BME280;8643;48.824;11.422;2024-03-06T02:15:15;96839.94;;;5.67;100.00
17054;BME280;8643;48.824;11.422;2024-03-06T02:17:43;96831.59;;;5.64;100.00
17054;BME280;8643;48.824;11.422;2024-03-06T02:20:13;96835.38;;;5.77;100.00
17054;BME280;8643;48.824;11.422;2024-03-06T02:22:44;96830.16;;;5.66;100.00
17054;BME280;8643;48.824;11.422;2024-03-06T02:25:13;96830.66;;;5.82;100.00
17054;BME280;8643;48.824;11.422;2024-03-06T02:27:43;96838.28;;;5.94;100.00
17054;BME280;8643;48.824;11.422;2024-03-06T02:30:12;96844.34;;;5.91;100.00
17054;BME280;8643;48.824;11.422;2024-03-06T02:32:41;96829.34;;;5.80;100.00
17054;BME280;8643;48.824;11.422;2024-03-06T02:35:11;96831.47;;;5.69;100.00
17054;BME280;8643;48.824;11.422;2024-03-06T02:37:42;96827.94;;;5.68;100.00
17054;BME280;8643;48.824;11.422;2024-03-06T02:40:13;96829.78;;;5.59;100.00
17054;BME280;8643;48.824;11.422;2024-03-06T02:42:41;96825.94;;;5.60;100.00
17054;BME280;8643;48.824;11.422;2024-03-06T02:45:10;96829.19;;;5.62;100.00
17054;BME280;8643;48.824;11.422;2024-03-06T02:47:38;96832.28;;;5.69;100.00
17054;BME280;8643;48.824;11.422;2024-03-06T02:50:08;96820.50;;;5.60;100.00
17054;BME280;8643;48.824;11.422;2024-03-06T02:52:37;96826.16;;;5.64;100.00
17054;BME280;8643;48.824;11.422;2024-03-06T02:55:06;96824.63;;;5.72;100.00
17054;BME280;8643;48.824;11.422;2024-03-06T02:57:36;96825.41;;;5.86;100.00
17054;BME280;8643;48.824;11.422;2024-03-06T03:00:07;96830.25;;;5.75;100.00
17054;BME280;8643;48.824;11.422;2024-03-06T03:02:39;96823.63;;;5.67;100.00
17054;BME280;8643;48.824;11.422;2024-03-06T03:05:08;96828.25;;;5.53;100.00
17054;BME280;8643;48.824;11.422;2024-03-06T03:07:38;96831.78;;;5.40;100.00
17054;BME280;8643;48.824;11.422;2024-03-06T03:10:07;96824.75;;;5.53;100.00
17054;BME280;8643;48.824;11.422;2024-03-06T03:12:39;96812.56;;;5.50;100.00
17054;BME280;8643;48.824;11.422;2024-03-06T03:15:09;96825.03;;;5.37;100.00
17054;BME280;8643;48.824;11.422;2024-03-06T03:17:38;96819.19;;;5.30;100.00
17054;BME280;8643;48.824;11.422;2024-03-06T03:20:08;96815.16;;;5.27;100.00
17054;BME280;8643;48.824;11.422;2024-03-06T03:22:39;96823.44;;;5.50;100.00
17054;BME280;8643;48.824;11.422;2024-03-06T03:25:09;96818.28;;;5.48;100.00
17054;BME280;8643;48.824;11.422;2024-03-06T03:27:40;96820.50;;;5.46;100.00
17054;BME280;8643;48.824;11.422;2024-03-06T03:30:11;96824.53;;;5.49;100.00
17054;BME280;8643;48.824;11.422;2024-03-06T03:32:39;96822.03;;;5.53;100.00
17054;BME280;8643;48.824;11.422;2024-03-06T03:35:08;96819.81;;;5.55;100.00
17054;BME280;8643;48.824;11.422;2024-03-06T03:37:37;96818.09;;;5.59;100.00
17054;BME280;8643;48.824;11.422;2024-03-06T03:40:07;96821.72;;;5.82;100.00
17054;BME280;8643;48.824;11.422;2024-03-06T03:42:40;96823.34;;;5.69;100.00
17054;BME280;8643;48.824;11.422;2024-03-06T03:45:09;96823.75;;;5.62;100.00
17054;BME280;8643;48.824;11.422;2024-03-06T03:47:37;96825.03;;;5.65;100.00
17054;BME280;8643;48.824;11.422;2024-03-06T03:50:07;96828.25;;;5.53;100.00
17054;BME280;8643;48.824;11.422;2024-03-06T03:52:38;96830.25;;;5.75;100.00
17054;BME280;8643;48.824;11.422;2024-03-06T03:55:09;96837.22;;;5.67;100.00
17054;BME280;8643;48.824;11.422;2024-03-06T03:57:39;96836.19;;;5.63;100.00
17054;BME280;8643;48.824;11.422;2024-03-06T04:00:09;96846.56;;;5.61;100.00
17054;BME280;8643;48.824;11.422;2024-03-06T04:02:39;96848.59;;;5.69;100.00
17054;BME280;8643;48.824;11.422;2024-03-06T04:05:08;96845.66;;;5.66;100.00
17054;BME280;8643;48.824;11.422;2024-03-06T04:07:38;96847.25;;;5.67;100.00
17054;BME280;8643;48.824;11.422;2024-03-06T04:10:07;96840.84;;;5.63;100.00
17054;BME280;8643;48.824;11.422;2024-03-06T04:12:40;96841.44;;;5.74;100.00
17054;BME280;8643;48.824;11.422;2024-03-06T04:15:09;96846.56;;;5.75;100.00
17054;BME280;8643;48.824;11.422;2024-03-06T04:17:38;96855.13;;;5.82;100.00
17054;BME280;8643;48.824;11.422;2024-03-06T04:20:09;96851.69;;;5.91;100.00
17054;BME280;8643;48.824;11.422;2024-03-06T04:22:40;96850.69;;;5.86;100.00
17054;BME280;8643;48.824;11.422;2024-03-06T04:25:09;96846.25;;;5.77;100.00
17054;BME280;8643;48.824;11.422;2024-03-06T04:27:37;96850.59;;;5.92;100.00
17054;BME280;8643;48.824;11.422;2024-03-06T04:30:09;96850.59;;;5.92;100.00
17054;BME280;8643;48.824;11.422;2024-03-06T04:32:37;96854.41;;;6.04;100.00
17054;BME280;8643;48.824;11.422;2024-03-06T04:35:07;96845.34;;;6.09;100.00
17054;BME280;8643;48.824;11.422;2024-03-06T04:37:36;96852.69;;;5.95;100.00
17054;BME280;8643;48.824;11.422;2024-03-06T04:40:06;96860.47;;;6.01;100.00
17054;BME280;8643;48.824;11.422;2024-03-06T04:42:35;96859.72;;;5.96;100.00
17054;BME280;8643;48.824;11.422;2024-03-06T04:45:14;96872.03;;;5.93;100.00
17054;BME280;8643;48.824;11.422;2024-03-06T04:47:43;96868.41;;;5.84;100.00
17054;BME280;8643;48.824;11.422;2024-03-06T04:50:13;96874.44;;;5.67;100.00
17054;BME280;8643;48.824;11.422;2024-03-06T04:52:43;96875.25;;;5.67;100.00
17054;BME280;8643;48.824;11.422;2024-03-06T04:55:13;96875.25;;;5.81;100.00
17054;BME280;8643;48.824;11.422;2024-03-06T04:57:45;96877.47;;;5.93;100.00
17054;BME280;8643;48.824;11.422;2024-03-06T05:00:16;96878.47;;;5.69;100.00
17054;BME280;8643;48.824;11.422;2024-03-06T05:02:46;96877.66;;;5.69;100.00
17054;BME280;8643;48.824;11.422;2024-03-06T05:05:34;96889.53;;;5.59;100.00
17054;BME280;8643;48.824;11.422;2024-03-06T05:08:20;96893.06;;;5.60;100.00
17054;BME280;8643;48.824;11.422;2024-03-06T05:11:06;96904.41;;;5.62;100.00
17054;BME280;8643;48.824;11.422;2024-03-06T05:13:52;96895.38;;;5.53;100.00
17054;BME280;8643;48.824;11.422;2024-03-06T05:16:40;96905.69;;;5.50;100.00
17054;BME280;8643;48.824;11.422;2024-03-06T05:19:25;96906.09;;;5.44;100.00
17054;BME280;8643;48.824;11.422;2024-03-06T05:22:17;96912.13;;;5.41;100.00
17054;BME280;8643;48.824;11.422;2024-03-06T05:25:03;96907.81;;;5.40;100.00
17054;BME280;8643;48.824;11.422;2024-03-06T05:27:50;96907.81;;;5.40;100.00
17054;BME280;8643;48.824;11.422;2024-03-06T05:30:36;96912.41;;;5.39;100.00
17054;BME280;8643;48.824;11.422;2024-03-06T05:33:24;96916.47;;;5.42;100.00
17054;BME280;8643;48.824;11.422;2024-03-06T05:36:11;96921.69;;;5.38;100.00
17054;BME280;8643;48.824;11.422;2024-03-06T05:38:58;96922.78;;;5.37;100.00
17054;BME280;8643;48.824;11.422;2024-03-06T05:41:44;96921.25;;;5.31;100.00
17054;BME280;8643;48.824;11.422;2024-03-06T05:44:30;96927.59;;;5.26;100.00
17054;BME280;8643;48.824;11.422;2024-03-06T05:47:16;96928.41;;;5.27;100.00
17054;BME280;8643;48.824;11.422;2024-03-06T05:50:05;96928.69;;;5.25;100.00
17054;BME280;8643;48.824;11.422;2024-03-06T05:52:51;96935.13;;;5.29;100.00
17054;BME280;8643;48.824;11.422;2024-03-06T05:55:37;96932.34;;;5.35;100.00
17054;BME280;8643;48.824;11.422;2024-03-06T05:58:23;96933.34;;;5.39;100.00
17054;BME280;8643;48.824;11.422;2024-03-06T06:00:52;96934.97;;;5.40;100.00
17054;BME280;8643;48.824;11.422;2024-03-06T06:03:20;96933.66;;;5.37;100.00
17054;BME280;8643;48.824;11.422;2024-03-06T06:05:50;96927.81;;;5.44;100.00
17054;BME280;8643;48.824;11.422;2024-03-06T06:08:19;96935.97;;;5.44;100.00
17054;BME280;8643;48.824;11.422;2024-03-06T06:10:48;96942.88;;;5.36;100.00
17054;BME280;8643;48.824;11.422;2024-03-06T06:13:18;96942.72;;;5.46;100.00
17054;BME280;8643;48.824;11.422;2024-03-06T06:15:48;96945.44;;;5.46;100.00
17054;BME280;8643;48.824;11.422;2024-03-06T06:18:17;96943.72;;;5.50;100.00
17054;BME280;8643;48.824;11.422;2024-03-06T06:20:45;96949.47;;;5.49;100.00
17054;BME280;8643;48.824;11.422;2024-03-06T06:23:16;96949.47;;;5.49;100.00
17054;BME280;8643;48.824;11.422;2024-03-06T06:25:44;96952.47;;;5.47;100.00
17054;BME280;8643;48.824;11.422;2024-03-06T06:28:13;96953.09;;;5.58;100.00
17054;BME280;8643;48.824;11.422;2024-03-06T06:30:43;96963.38;;;5.61;100.00
17054;BME280;8643;48.824;11.422;2024-03-06T06:33:12;96961.97;;;5.64;100.00
17054;BME280;8643;48.824;11.422;2024-03-06T06:35:41;96957.75;;;5.72;100.00
17054;BME280;8643;48.824;11.422;2024-03-06T06:38:09;96967.34;;;5.83;100.00
17054;BME280;8643;48.824;11.422;2024-03-06T06:40:39;96968.34;;;5.87;100.00
17054;BME280;8643;48.824;11.422;2024-03-06T06:43:08;96963.97;;;6.05;100.00
17054;BME280;8643;48.824;11.422;2024-03-06T06:45:42;96966.47;;;6.15;100.00
17054;BME280;8643;48.824;11.422;2024-03-06T06:48:11;96969.09;;;6.20;100.00
17054;BME280;8643;48.824;11.422;2024-03-06T06:50:39;96964.84;;;6.42;100.00
17054;BME280;8643;48.824;11.422;2024-03-06T06:53:08;96969.25;;;6.52;100.00
17054;BME280;8643;48.824;11.422;2024-03-06T06:55:38;96966.75;;;6.41;100.00
17054;BME280;8643;48.824;11.422;2024-03-06T06:58:07;96967.56;;;6.56;100.00
17054;BME280;8643;48.824;11.422;2024-03-06T07:00:35;96974.00;;;6.60;100.00
17054;BME280;8643;48.824;11.422;2024-03-06T07:03:04;96976.09;;;6.63;100.00
17054;BME280;8643;48.824;11.422;2024-03-06T07:05:34;96968.06;;;6.58;100.00
17054;BME280;8643;48.824;11.422;2024-03-06T07:08:03;96980.75;;;6.63;100.00
17054;BME280;8643;48.824;11.422;2024-03-06T07:10:31;96981.28;;;6.51;100.00
17054;BME280;8643;48.824;11.422;2024-03-06T07:13:02;96982.44;;;6.72;100.00
17054;BME280;8643;48.824;11.422;2024-03-06T07:15:35;96984.97;;;6.69;100.00
17054;BME280;8643;48.824;11.422;2024-03-06T07:18:04;96973.38;;;6.63;100.00
17054;BME280;8643;48.824;11.422;2024-03-06T07:20:33;96988.00;;;6.67;100.00
17054;BME280;8643;48.824;11.422;2024-03-06T07:23:01;96994.63;;;6.75;100.00
17054;BME280;8643;48.824;11.422;2024-03-06T07:25:30;97001.88;;;6.79;100.00
17054;BME280;8643;48.824;11.422;2024-03-06T07:28:01;97002.19;;;6.78;100.00
17054;BME280;8643;48.824;11.422;2024-03-06T07:30:29;97006.56;;;6.65;100.00
17054;BME280;8643;48.824;11.422;2024-03-06T07:32:58;97004.03;;;6.69;100.00
17054;BME280;8643;48.824;11.422;2024-03-06T07:35:28;97006.31;;;6.75;100.00
17054;BME280;8643;48.824;11.422;2024-03-06T07:37:57;97010.38;;;6.78;100.00
17054;BME280;8643;48.824;11.422;2024-03-06T07:40:27;97019.03;;;6.66;100.00
17054;BME280;8643;48.824;11.422;2024-03-06T07:42:55;97012.00;;;6.65;100.00
17054;BME280;8643;48.824;11.422;2024-03-06T07:45:26;97016.59;;;6.65;100.00
17054;BME280;8643;48.824;11.422;2024-03-06T07:47:54;97024.91;;;6.46;100.00
17054;BME280;8643;48.824;11.422;2024-03-06T07:50:23;97018.75;;;6.40;100.00
17054;BME280;8643;48.824;11.422;2024-03-06T07:52:53;97020.94;;;6.66;100.00
17054;BME280;8643;48.824;11.422;2024-03-06T07:55:23;97025.56;;;6.93;100.00
17054;BME280;8643;48.824;11.422;2024-03-06T07:57:52;97016.13;;;6.99;100.00
17054;BME280;8643;48.824;11.422;2024-03-06T08:00:21;97024.31;;;6.99;100.00
17054;BME280;8643;48.824;11.422;2024-03-06T08:02:51;97031.44;;;7.09;100.00
17054;BME280;8643;48.824;11.422;2024-03-06T08:05:20;97021.75;;;7.16;100.00
17054;BME280;8643;48.824;11.422;2024-03-06T08:07:49;97031.44;;;7.45;100.00
17054;BME280;8643;48.824;11.422;2024-03-06T08:10:18;97027.97;;;7.31;100.00
17054;BME280;8643;48.824;11.422;2024-03-06T08:12:47;97038.69;;;7.50;100.00
17054;BME280;8643;48.824;11.422;2024-03-06T08:15:17;97032.94;;;7.51;100.00
17054;BME280;8643;48.824;11.422;2024-03-06T08:17:45;97036.75;;;7.50;100.00
17054;BME280;8643;48.824;11.422;2024-03-06T08:20:15;97044.25;;;7.67;100.00
17054;BME280;8643;48.824;11.422;2024-03-06T08:22:44;97041.81;;;7.88;100.00
17054;BME280;8643;48.824;11.422;2024-03-06T08:25:13;97049.94;;;8.02;100.00
17054;BME280;8643;48.824;11.422;2024-03-06T08:27:42;97046.50;;;7.97;100.00
17054;BME280;8643;48.824;11.422;2024-03-06T08:30:11;97045.53;;;7.93;100.00
17054;BME280;8643;48.824;11.422;2024-03-06T08:32:40;97045.03;;;8.13;100.00
17054;BME280;8643;48.824;11.422;2024-03-06T08:35:13;97041.81;;;7.88;100.00
17054;BME280;8643;48.824;11.422;2024-03-06T08:37:49;97056.88;;;8.08;100.00
17054;BME280;8643;48.824;11.422;2024-03-06T08:40:18;97051.34;;;8.00;100.00
17054;BME280;8643;48.824;11.422;2024-03-06T08:42:48;97060.16;;;7.97;100.00
17054;BME280;8643;48.824;11.422;2024-03-06T08:45:17;97060.47;;;7.95;100.00
17054;BME280;8643;48.824;11.422;2024-03-06T08:47:47;97067.22;;;7.98;100.00
17054;BME280;8643;48.824;11.422;2024-03-06T08:50:16;97061.78;;;8.29;100.00
17054;BME280;8643;48.824;11.422;2024-03-06T08:52:47;97057.28;;;8.56;100.00
17054;BME280;8643;48.824;11.422;2024-03-06T08:55:16;97057.13;;;8.30;100.00
17054;BME280;8643;48.824;11.422;2024-03-06T08:57:45;97062.31;;;8.08;100.00
17054;BME280;8643;48.824;11.422;2024-03-06T09:00:15;97067.78;;;8.08;100.00
17054;BME280;8643;48.824;11.422;2024-03-06T09:02:45;97066.88;;;8.22;100.00
17054;BME280;8643;48.824;11.422;2024-03-06T09:05:14;97079.34;;;8.14;100.00
17054;BME280;8643;48.824;11.422;2024-03-06T09:07:43;97077.25;;;8.11;100.00
17054;BME280;8643;48.824;11.422;2024-03-06T09:10:13;97078.16;;;8.06;100.00
17054;BME280;8643;48.824;11.422;2024-03-06T09:12:42;97089.66;;;7.72;100.00
17054;BME280;8643;48.824;11.422;2024-03-06T09:15:11;97091.28;;;7.73;100.00
17054;BME280;8643;48.824;11.422;2024-03-06T09:17:41;97085.13;;;7.90;100.00
17054;BME280;8643;48.824;11.422;2024-03-06T09:20:10;97091.94;;;7.79;100.00
17054;BME280;8643;48.824;11.422;2024-03-06T09:22:41;97090.03;;;7.57;100.00
17054;BME280;8643;48.824;11.422;2024-03-06T09:25:14;97089.84;;;7.76;100.00
17054;BME280;8643;48.824;11.422;2024-03-06T09:27:43;97093.06;;;7.78;100.00
17054;BME280;8643;48.824;11.422;2024-03-06T09:30:13;97093.88;;;7.78;100.00
17054;BME280;8643;48.824;11.422;2024-03-06T09:32:43;97090.53;;;7.81;100.00
17054;BME280;8643;48.824;11.422;2024-03-06T09:35:12;97102.63;;;7.89;100.00
17054;BME280;8643;48.824;11.422;2024-03-06T09:37:45;97098.72;;;8.04;100.00
17054;BME280;8643;48.824;11.422;2024-03-06T09:40:23;97098.94;;;8.16;100.00
17054;BME280;8643;48.824;11.422;2024-03-06T09:42:52;97104.75;;;8.23;100.00
17054;BME280;8643;48.824;11.422;2024-03-06T09:45:21;97105.50;;;8.15;100.00
17054;BME280;8643;48.824;11.422;2024-03-06T09:47:51;97111.09;;;8.10;100.00
17054;BME280;8643;48.824;11.422;2024-03-06T09:50:24;97106.94;;;7.90;100.00
17054;BME280;8643;48.824;11.422;2024-03-06T09:52:55;97106.00;;;7.95;100.00
17054;BME280;8643;48.824;11.422;2024-03-06T09:55:27;97109.88;;;7.94;100.00
17054;BME280;8643;48.824;11.422;2024-03-06T09:57:56;97114.81;;;7.92;100.00
17054;BME280;8643;48.824;11.422;2024-03-06T10:00:25;97111.19;;;8.27;100.00
17054;BME280;8643;48.824;11.422;2024-03-06T10:02:58;97112.66;;;8.34;100.00
17054;BME280;8643;48.824;11.422;2024-03-06T10:05:28;97111.09;;;8.64;100.00
17054;BME280;8643;48.824;11.422;2024-03-06T10:08:00;97115.25;;;9.02;100.00
17054;BME280;8643;48.824;11.422;2024-03-06T10:10:31;97111.03;;;8.95;100.00
17054;BME280;8643;48.824;11.422;2024-03-06T10:13:00;97118.44;;;9.04;100.00
17054;BME280;8643;48.824;11.422;2024-03-06T10:15:28;97106.16;;;9.32;100.00
17054;BME280;8643;48.824;11.422;2024-03-06T10:18:11;97111.16;;;9.65;100.00
17054;BME280;8643;48.824;11.422;2024-03-06T10:20:41;97109.88;;;9.71;100.00
17054;BME280;8643;48.824;11.422;2024-03-06T10:23:12;97113.56;;;9.84;100.00
17054;BME280;8643;48.824;11.422;2024-03-06T10:25:45;97110.00;;;9.58;100.00
17054;BME280;8643;48.824;11.422;2024-03-06T10:28:20;97117.66;;;9.12;100.00
17054;BME280;8643;48.824;11.422;2024-03-06T10:30:50;97106.56;;;9.08;100.00
17054;BME280;8643;48.824;11.422;2024-03-06T10:33:20;97116.50;;;8.95;100.00
17054;BME280;8643;48.824;11.422;2024-03-06T10:35:49;97118.91;;;8.88;100.00
17054;BME280;8643;48.824;11.422;2024-03-06T10:38:20;97118.78;;;9.11;100.00
17054;BME280;8643;48.824;11.422;2024-03-06T10:40:51;97123.19;;;9.29;100.00
17054;BME280;8643;48.824;11.422;2024-03-06T10:43:22;97123.69;;;9.58;100.00
17054;BME280;8643;48.824;11.422;2024-03-06T10:46:00;97121.59;;;9.54;100.00
17054;BME280;8643;48.824;11.422;2024-03-06T10:48:29;97126.25;;;9.89;100.00
17054;BME280;8643;48.824;11.422;2024-03-06T10:51:00;97125.16;;;9.81;100.00
17054;BME280;8643;48.824;11.422;2024-03-06T10:53:31;97128.78;;;10.47;100.00
17054;BME280;8643;48.824;11.422;2024-03-06T10:56:08;97125.59;;;11.13;100.00
17054;BME280;8643;48.824;11.422;2024-03-06T10:58:38;97123.63;;;11.22;100.00
17054;BME280;8643;48.824;11.422;2024-03-06T11:01:09;97115.81;;;12.51;100.00
17054;BME280;8643;48.824;11.422;2024-03-06T11:03:41;97127.22;;;11.86;97.58
17054;BME280;8643;48.824;11.422;2024-03-06T11:06:10;97130.19;;;11.30;99.36
17054;BME280;8643;48.824;11.422;2024-03-06T11:08:39;97132.44;;;11.07;97.61
17054;BME280;8643;48.824;11.422;2024-03-06T11:11:23;97133.53;;;10.67;100.00
17054;BME280;8643;48.824;11.422;2024-03-06T11:13:55;97131.94;;;10.66;100.00
17054;BME280;8643;48.824;11.422;2024-03-06T11:16:29;97124.28;;;10.42;98.78
17054;BME280;8643;48.824;11.422;2024-03-06T11:19:08;97132.69;;;10.11;100.00
17054;BME280;8643;48.824;11.422;2024-03-06T11:21:46;97133.47;;;10.28;99.30
17054;BME280;8643;48.824;11.422;2024-03-06T11:24:21;97129.31;;;10.14;99.95
17054;BME280;8643;48.824;11.422;2024-03-06T11:26:55;97124.31;;;9.81;100.00
17054;BME280;8643;48.824;11.422;2024-03-06T11:30:06;97129.97;;;9.76;100.00
17054;BME280;8643;48.824;11.422;2024-03-06T11:32:57;97130.44;;;9.95;98.19
17054;BME280;8643;48.824;11.422;2024-03-06T11:35:28;97112.47;;;11.27;95.42
17054;BME280;8643;48.824;11.422;2024-03-06T11:37:59;97110.72;;;12.98;88.95
17054;BME280;8643;48.824;11.422;2024-03-06T11:40:28;97119.81;;;15.25;80.59
17054;BME280;8643;48.824;11.422;2024-03-06T11:43:24;97111.63;;;15.64;71.82
17054;BME280;8643;48.824;11.422;2024-03-06T11:46:07;97121.28;;;15.03;69.17
17054;BME280;8643;48.824;11.422;2024-03-06T11:48:37;97108.19;;;14.68;71.07
17054;BME280;8643;48.824;11.422;2024-03-06T11:51:06;97112.31;;;14.18;73.90
17054;BME280;8643;48.824;11.422;2024-03-06T11:53:36;97114.84;;;13.17;80.64
17054;BME280;8643;48.824;11.422;2024-03-06T11:56:06;97119.41;;;12.76;79.45
17054;BME280;8643;48.824;11.422;2024-03-06T11:58:36;97113.97;;;12.09;82.42
17054;BME280;8643;48.824;11.422;2024-03-06T12:01:06;97125.94;;;11.11;87.01
17054;BME280;8643;48.824;11.422;2024-03-06T12:03:36;97118.16;;;10.45;89.85
17054;BME280;8643;48.824;11.422;2024-03-06T12:06:06;97123.97;;;10.08;92.41
17054;BME280;8643;48.824;11.422;2024-03-06T12:08:35;97129.66;;;9.95;95.78
17054;BME280;8643;48.824;11.422;2024-03-06T12:11:05;97120.63;;;9.68;97.34
17054;BME280;8643;48.824;11.422;2024-03-06T12:13:35;97118.34;;;9.17;99.86
17054;BME280;8643;48.824;11.422;2024-03-06T12:16:07;97122.59;;;9.01;100.00
17054;BME280;8643;48.824;11.422;2024-03-06T12:18:36;97120.09;;;8.73;100.00
17054;BME280;8643;48.824;11.422;2024-03-06T12:21:05;97125.19;;;8.57;100.00
17054;BME280;8643;48.824;11.422;2024-03-06T12:23:35;97119.59;;;8.62;100.00
17054;BME280;8643;48.824;11.422;2024-03-06T12:26:05;97121.06;;;8.69;100.00
17054;BME280;8643;48.824;11.422;2024-03-06T12:28:37;97121.72;;;8.74;100.00
17054;BME280;8643;48.824;11.422;2024-03-06T12:31:07;97119.22;;;8.87;100.00
17054;BME280;8643;48.824;11.422;2024-03-06T12:33:37;97113.94;;;8.99;100.00
17054;BME280;8643;48.824;11.422;2024-03-06T12:36:07;97118.63;;;9.07;100.00
17054;BME280;8643;48.824;11.422;2024-03-06T12:38:38;97122.50;;;9.15;100.00
17054;BME280;8643;48.824;11.422;2024-03-06T12:41:06;97117.66;;;9.21;100.00
17054;BME280;8643;48.824;11.422;2024-03-06T12:43:35;97117.88;;;9.24;100.00
17054;BME280;8643;48.824;11.422;2024-03-06T12:46:06;97115.88;;;9.07;100.00
17054;BME280;8643;48.824;11.422;2024-03-06T12:48:35;97117.81;;;8.98;100.00
17054;BME280;8643;48.824;11.422;2024-03-06T12:51:04;97119.09;;;9.09;100.00
17054;BME280;8643;48.824;11.422;2024-03-06T12:53:33;97118.75;;;9.02;100.00
17054;BME280;8643;48.824;11.422;2024-03-06T12:56:03;97115.06;;;8.98;100.00
17054;BME280;8643;48.824;11.422;2024-03-06T12:58:33;97116.34;;;9.01;100.00
17054;BME280;8643;48.824;11.422;2024-03-06T13:01:02;97119.44;;;9.08;100.00
17054;BME280;8643;48.824;11.422;2024-03-06T13:03:33;97116.19;;;9.06;100.00
17054;BME280;8643;48.824;11.422;2024-03-06T13:06:03;97121.16;;;8.95;100.00
17054;BME280;8643;48.824;11.422;2024-03-06T13:08:33;97116.78;;;8.85;100.00
17054;BME280;8643;48.824;11.422;2024-03-06T13:11:02;97114.69;;;8.82;100.00
17054;BME280;8643;48.824;11.422;2024-03-06T13:13:31;97117.75;;;8.89;100.00
17054;BME280;8643;48.824;11.422;2024-03-06T13:16:01;97116.97;;;8.89;100.00
17054;BME280;8643;48.824;11.422;2024-03-06T13:18:35;97114.88;;;8.94;100.00
17054;BME280;8643;48.824;11.422;2024-03-06T13:21:05;97119.53;;;8.85;100.00